Hamnavoe — VSTY7 — position and weather

sailwx.info

Track history (hours):
 
Tides and Currents Weather Stations Pressure Air Temp Water Temp Dewpoint Dewpoint Depression Visibility Wind Speed Wind Dir Waves Ship Positions

Hamnavoe

Operator: NorthLink Orkey & Shetland Ferries Ltd

Last reported at 2020-Sep-27 13:58 UTC. Time now 2020-Sep-27 15:04 UTC.
Position N 58°58' W 003°18'.

Length 112 m; draft 4.4 m.

Type: Ship. MMSI: 235449000.

Date/timePositionNaut miles runAvg speedWind from/ knotsBaromVisibWave heightAir tempDewpointWater temp
2020-Sep-27 13:58N 58°58' W 003°18'0 0.0
2020-Sep-27 12:58N 58°58' W 003°18'22 7.5
2020-Sep-27 09:57N 58°37' W 003°32'22 9.0
2020-Sep-27 07:27N 58°58' W 003°18'0 0.0
2020-Sep-27 02:57N 58°58' W 003°18'0 0.0
2020-Sep-26 22:57N 58°58' W 003°18'0 0.0
2020-Sep-26 21:51N 58°58' W 003°18'5 1.6
2020-Sep-26 19:00N 58°55' W 003°25'5 1.1
2020-Sep-26 15:00N 58°58' W 003°18'17 4.2
2020-Sep-26 11:00N 58°43' W 003°31'1711.1
2020-Sep-26 09:30N 58°58' W 003°18'1812.1
2020-Sep-26 08:00N 58°41' W 003°31'4 6.7
2020-Sep-26 07:21N 58°37' W 003°32'0 0.1
2020-Sep-26 07:00N 58°37' W 003°32'613.1
2020-Sep-26 06:30N 58°43' W 003°30'1615.9
2020-Sep-26 05:30N 58°58' W 003°18'0 0.1
2020-Sep-26 00:20N 58°58' W 003°18'0 0.0
2020-Sep-25 23:26N 58°58' W 003°18'0 0.0
2020-Sep-25 20:26N 58°58' W 003°18'0 0.0
2020-Sep-25 19:30N 58°58' W 003°18'0 0.0
2020-Sep-25 14:30N 58°58' W 003°18'0 0.0
2020-Sep-25 13:54N 58°58' W 003°18'0 0.0
2020-Sep-25 13:30N 58°58' W 003°18'10 2.0
2020-Sep-25 08:30N 58°50' W 003°29'1313.4
2020-Sep-25 07:30N 58°37' W 003°32'0 0.1
2020-Sep-25 07:00N 58°37' W 003°32'1716.9
2020-Sep-25 06:00N 58°53' W 003°27'7 3.3
2020-Sep-25 04:00N 58°58' W 003°18'0 0.0
2020-Sep-25 00:30N 58°58' W 003°18'21 2.7
2020-Sep-24 16:56N 58°38' W 003°31'1617.4
2020-Sep-24 16:00N 58°54' W 003°26'611.2
2020-Sep-24 15:30N 58°58' W 003°18'0 0.0
2020-Sep-24 13:59N 58°58' W 003°18'22 3.5
2020-Sep-24 07:30N 58°37' W 003°32'7 6.7
2020-Sep-24 06:30N 58°43' W 003°31'1615.8
2020-Sep-24 05:31N 58°58' W 003°18'0 0.1
2020-Sep-24 03:00N 58°58' W 003°18'0 0.0
2020-Sep-24 02:30N 58°58' W 003°18'0 0.0
2020-Sep-24 02:00N 58°58' W 003°18'0 0.0
2020-Sep-23 21:30N 58°58' W 003°18'0 0.0
2020-Sep-23 20:00N 58°58' W 003°18'0 0.0
2020-Sep-23 19:25N 58°58' W 003°18'0 0.2
2020-Sep-23 19:24N 58°58' W 003°18'3 7.1
2020-Sep-23 19:00N 58°57' W 003°23'3 0.7
2020-Sep-23 15:00N 58°58' W 003°18'0 0.0
2020-Sep-23 14:00N 58°58' W 003°18'0 0.0
2020-Sep-23 12:00N 58°58' W 003°18'0 0.0
2020-Sep-23 11:00N 58°58' W 003°18'0 0.0
2020-Sep-23 10:30N 58°58' W 003°18'0 0.0
2020-Sep-23 01:59N 58°58' W 003°18'0 0.0
2020-Sep-22 22:59N 58°58' W 003°18'14 2.2
2020-Sep-22 16:30N 58°45' W 003°30'816.5
2020-Sep-22 16:00N 58°53' W 003°27'613.0
2020-Sep-22 15:31N 58°58' W 003°18'0 0.0
2020-Sep-22 11:56N 58°58' W 003°18'0 0.0
2020-Sep-22 10:59N 58°58' W 003°18'0 0.0
2020-Sep-22 09:59N 58°58' W 003°18'0 0.0
2020-Sep-22 09:26N 58°58' W 003°18'1611.3
2020-Sep-22 08:00N 58°43' W 003°30'612.9
2020-Sep-22 07:31N 58°37' W 003°32'0 0.0
2020-Sep-22 07:00N 58°37' W 003°32'2210.7
2020-Sep-22 04:55N 58°58' W 003°18'0 0.0
2020-Sep-22 03:55N 58°58' W 003°18'0 0.0
2020-Sep-22 03:25N 58°58' W 003°18'0 0.0
2020-Sep-21 22:55N 58°58' W 003°18'0 0.0
2020-Sep-21 21:58N 58°58' W 003°18'0 0.0
2020-Sep-21 21:25N 58°58' W 003°18'0 0.0
2020-Sep-21 20:25N 58°58' W 003°18'22 7.7
2020-Sep-21 17:30N 58°37' W 003°32'1912.5
2020-Sep-21 16:00N 58°55' W 003°27'6 2.8
2020-Sep-21 13:58N 58°58' W 003°18'0 0.0
2020-Sep-21 10:22N 58°58' W 003°18'12 6.4
2020-Sep-21 08:30N 58°46' W 003°13'1414.1
2020-Sep-21 07:30N 58°37' W 003°32'2211.1
2020-Sep-21 05:30N 58°58' W 003°18'0 0.1
2020-Sep-21 01:29N 58°58' W 003°18'0 0.0
2020-Sep-21 00:29N 58°58' W 003°18'0 0.0
2020-Sep-20 23:23N 58°58' W 003°18'0 0.0
2020-Sep-20 19:30N 58°58' W 003°18'4 7.9
2020-Sep-20 19:00N 58°56' W 003°24'1716.8
2020-Sep-20 18:00N 58°40' W 003°31'3 5.8
2020-Sep-20 17:30N 58°37' W 003°32'2 3.4
2020-Sep-20 17:00N 58°38' W 003°31'817.0
2020-Sep-20 16:31N 58°47' W 003°30'815.8
2020-Sep-20 16:00N 58°54' W 003°27'6 3.8
2020-Sep-20 14:28N 58°58' W 003°18'0 0.0
2020-Sep-20 12:30N 58°58' W 003°18'5 9.4
2020-Sep-20 12:00N 58°55' W 003°25'918.0
2020-Sep-20 11:30N 58°46' W 003°29'10 9.8
2020-Sep-20 10:29N 58°37' W 003°32'14 7.3
2020-Sep-20 08:30N 58°51' W 003°28'9 5.7
2020-Sep-20 06:58N 58°58' W 003°18'0 0.0
2020-Sep-20 05:58N 58°58' W 003°18'0 0.0
2020-Sep-19 23:58N 58°58' W 003°18'0 0.0
2020-Sep-19 20:28N 58°58' W 003°18'4 2.9
2020-Sep-19 19:00N 58°56' W 003°25'2013.0
2020-Sep-19 17:30N 58°37' W 003°32'1010.1
2020-Sep-19 16:30N 58°47' W 003°30'13 5.0
2020-Sep-19 13:55N 58°58' W 003°18'17 5.8
2020-Sep-19 11:00N 58°42' W 003°29'1616.3
2020-Sep-19 10:00N 58°57' W 003°18'22 8.3
2020-Sep-19 07:25N 58°37' W 003°32'0 0.0
2020-Sep-19 06:59N 58°37' W 003°32'2211.2
2020-Sep-19 04:59N 58°58' W 003°18'0 0.0
2020-Sep-19 04:29N 58°58' W 003°18'0 0.0
2020-Sep-19 02:29N 58°58' W 003°18'0 0.0
2020-Sep-19 01:29N 58°58' W 003°18'0 0.0
2020-Sep-18 23:29N 58°58' W 003°18'0 0.0
2020-Sep-18 22:29N 58°58' W 003°18'0 0.0
2020-Sep-18 19:59N 58°58' W 003°18'5 5.3
2020-Sep-18 19:00N 58°55' W 003°26'1716.9
2020-Sep-18 18:00N 58°38' W 003°31'21 7.0
2020-Sep-18 15:00N 58°58' W 003°18'0 0.0
2020-Sep-18 13:30N 58°58' W 003°18'0 0.0
2020-Sep-18 10:30N 58°58' W 003°18'22 7.5
2020-Sep-18 07:30N 58°37' W 003°32'0 0.2
2020-Sep-18 06:59N 58°37' W 003°32'2311.1
2020-Sep-18 04:57N 58°58' W 003°18'0 0.0
2020-Sep-18 03:00N 58°58' W 003°18'0 0.0
2020-Sep-18 01:27N 58°58' W 003°18'0 0.0
2020-Sep-18 00:57N 58°58' W 003°18'0 0.0
2020-Sep-17 19:30N 58°58' W 003°18'21 8.2
2020-Sep-17 16:56N 58°38' W 003°31'2114.8
2020-Sep-17 15:30N 58°58' W 003°18'0 0.0
2020-Sep-17 14:27N 58°58' W 003°18'  
Track history (hours):
 
Tides and Currents Weather Stations Pressure Air Temp Water Temp Dewpoint Dewpoint Depression Visibility Wind Speed Wind Dir Waves Ship Positions

Hamnavoe

Operator: NorthLink Orkey & Shetland Ferries Ltd

Last reported at 2020-Sep-27 13:58 UTC. Time now 2020-Sep-27 15:04 UTC.
Position N 58°58' W 003°18'.

Length 112 m; draft 4.4 m.

Type: Ship. MMSI: 235449000.

Date/timePositionNaut miles runAvg speedWind from/ knotsBaromVisibWave heightAir tempDewpointWater temp
2020-Sep-27 13:58N 58°58' W 003°18'0 0.0
2020-Sep-27 12:58N 58°58' W 003°18'22 7.5
2020-Sep-27 09:57N 58°37' W 003°32'22 9.0
2020-Sep-27 07:27N 58°58' W 003°18'0 0.0
2020-Sep-27 02:57N 58°58' W 003°18'0 0.0
2020-Sep-26 22:57N 58°58' W 003°18'0 0.0
2020-Sep-26 21:51N 58°58' W 003°18'5 1.6
2020-Sep-26 19:00N 58°55' W 003°25'5 1.1
2020-Sep-26 15:00N 58°58' W 003°18'17 4.2
2020-Sep-26 11:00N 58°43' W 003°31'1711.1
2020-Sep-26 09:30N 58°58' W 003°18'1812.1
2020-Sep-26 08:00N 58°41' W 003°31'4 6.7
2020-Sep-26 07:21N 58°37' W 003°32'0 0.1
2020-Sep-26 07:00N 58°37' W 003°32'613.1
2020-Sep-26 06:30N 58°43' W 003°30'1615.9
2020-Sep-26 05:30N 58°58' W 003°18'0 0.1
2020-Sep-26 00:20N 58°58' W 003°18'0 0.0
2020-Sep-25 23:26N 58°58' W 003°18'0 0.0
2020-Sep-25 20:26N 58°58' W 003°18'0 0.0
2020-Sep-25 19:30N 58°58' W 003°18'0 0.0
2020-Sep-25 14:30N 58°58' W 003°18'0 0.0
2020-Sep-25 13:54N 58°58' W 003°18'0 0.0
2020-Sep-25 13:30N 58°58' W 003°18'10 2.0
2020-Sep-25 08:30N 58°50' W 003°29'1313.4
2020-Sep-25 07:30N 58°37' W 003°32'0 0.1
2020-Sep-25 07:00N 58°37' W 003°32'1716.9
2020-Sep-25 06:00N 58°53' W 003°27'7 3.3
2020-Sep-25 04:00N 58°58' W 003°18'0 0.0
2020-Sep-25 00:30N 58°58' W 003°18'21 2.7
2020-Sep-24 16:56N 58°38' W 003°31'1617.4
2020-Sep-24 16:00N 58°54' W 003°26'611.2
2020-Sep-24 15:30N 58°58' W 003°18'0 0.0
2020-Sep-24 13:59N 58°58' W 003°18'22 3.5
2020-Sep-24 07:30N 58°37' W 003°32'7 6.7
2020-Sep-24 06:30N 58°43' W 003°31'1615.8
2020-Sep-24 05:31N 58°58' W 003°18'0 0.1
2020-Sep-24 03:00N 58°58' W 003°18'0 0.0
2020-Sep-24 02:30N 58°58' W 003°18'0 0.0
2020-Sep-24 02:00N 58°58' W 003°18'0 0.0
2020-Sep-23 21:30N 58°58' W 003°18'0 0.0
2020-Sep-23 20:00N 58°58' W 003°18'0 0.0
2020-Sep-23 19:25N 58°58' W 003°18'0 0.2
2020-Sep-23 19:24N 58°58' W 003°18'3 7.1
2020-Sep-23 19:00N 58°57' W 003°23'3 0.7
2020-Sep-23 15:00N 58°58' W 003°18'0 0.0
2020-Sep-23 14:00N 58°58' W 003°18'0 0.0
2020-Sep-23 12:00N 58°58' W 003°18'0 0.0
2020-Sep-23 11:00N 58°58' W 003°18'0 0.0
2020-Sep-23 10:30N 58°58' W 003°18'0 0.0
2020-Sep-23 01:59N 58°58' W 003°18'0 0.0
2020-Sep-22 22:59N 58°58' W 003°18'14 2.2
2020-Sep-22 16:30N 58°45' W 003°30'816.5
2020-Sep-22 16:00N 58°53' W 003°27'613.0
2020-Sep-22 15:31N 58°58' W 003°18'0 0.0
2020-Sep-22 11:56N 58°58' W 003°18'0 0.0
2020-Sep-22 10:59N 58°58' W 003°18'0 0.0
2020-Sep-22 09:59N 58°58' W 003°18'0 0.0
2020-Sep-22 09:26N 58°58' W 003°18'1611.3
2020-Sep-22 08:00N 58°43' W 003°30'612.9
2020-Sep-22 07:31N 58°37' W 003°32'0 0.0
2020-Sep-22 07:00N 58°37' W 003°32'2210.7
2020-Sep-22 04:55N 58°58' W 003°18'0 0.0
2020-Sep-22 03:55N 58°58' W 003°18'0 0.0
2020-Sep-22 03:25N 58°58' W 003°18'0 0.0
2020-Sep-21 22:55N 58°58' W 003°18'0 0.0
2020-Sep-21 21:58N 58°58' W 003°18'0 0.0
2020-Sep-21 21:25N 58°58' W 003°18'0 0.0
2020-Sep-21 20:25N 58°58' W 003°18'22 7.7
2020-Sep-21 17:30N 58°37' W 003°32'1912.5
2020-Sep-21 16:00N 58°55' W 003°27'6 2.8
2020-Sep-21 13:58N 58°58' W 003°18'0 0.0
2020-Sep-21 10:22N 58°58' W 003°18'12 6.4
2020-Sep-21 08:30N 58°46' W 003°13'1414.1
2020-Sep-21 07:30N 58°37' W 003°32'2211.1
2020-Sep-21 05:30N 58°58' W 003°18'0 0.1
2020-Sep-21 01:29N 58°58' W 003°18'0 0.0
2020-Sep-21 00:29N 58°58' W 003°18'0 0.0
2020-Sep-20 23:23N 58°58' W 003°18'0 0.0
2020-Sep-20 19:30N 58°58' W 003°18'4 7.9
2020-Sep-20 19:00N 58°56' W 003°24'1716.8
2020-Sep-20 18:00N 58°40' W 003°31'3 5.8
2020-Sep-20 17:30N 58°37' W 003°32'2 3.4
2020-Sep-20 17:00N 58°38' W 003°31'817.0
2020-Sep-20 16:31N 58°47' W 003°30'815.8
2020-Sep-20 16:00N 58°54' W 003°27'6 3.8
2020-Sep-20 14:28N 58°58' W 003°18'0 0.0
2020-Sep-20 12:30N 58°58' W 003°18'5 9.4
2020-Sep-20 12:00N 58°55' W 003°25'918.0
2020-Sep-20 11:30N 58°46' W 003°29'10 9.8
2020-Sep-20 10:29N 58°37' W 003°32'14 7.3
2020-Sep-20 08:30N 58°51' W 003°28'9 5.7
2020-Sep-20 06:58N 58°58' W 003°18'0 0.0
2020-Sep-20 05:58N 58°58' W 003°18'0 0.0
2020-Sep-19 23:58N 58°58' W 003°18'0 0.0
2020-Sep-19 20:28N 58°58' W 003°18'4 2.9
2020-Sep-19 19:00N 58°56' W 003°25'2013.0
2020-Sep-19 17:30N 58°37' W 003°32'1010.1
2020-Sep-19 16:30N 58°47' W 003°30'13 5.0
2020-Sep-19 13:55N 58°58' W 003°18'17 5.8
2020-Sep-19 11:00N 58°42' W 003°29'1616.3
2020-Sep-19 10:00N 58°57' W 003°18'22 8.3
2020-Sep-19 07:25N 58°37' W 003°32'0 0.0
2020-Sep-19 06:59N 58°37' W 003°32'2211.2
2020-Sep-19 04:59N 58°58' W 003°18'0 0.0
2020-Sep-19 04:29N 58°58' W 003°18'0 0.0
2020-Sep-19 02:29N 58°58' W 003°18'0 0.0
2020-Sep-19 01:29N 58°58' W 003°18'0 0.0
2020-Sep-18 23:29N 58°58' W 003°18'0 0.0
2020-Sep-18 22:29N 58°58' W 003°18'0 0.0
2020-Sep-18 19:59N 58°58' W 003°18'5 5.3
2020-Sep-18 19:00N 58°55' W 003°26'1716.9
2020-Sep-18 18:00N 58°38' W 003°31'21 7.0
2020-Sep-18 15:00N 58°58' W 003°18'0 0.0
2020-Sep-18 13:30N 58°58' W 003°18'0 0.0
2020-Sep-18 10:30N 58°58' W 003°18'22 7.5
2020-Sep-18 07:30N 58°37' W 003°32'0 0.2
2020-Sep-18 06:59N 58°37' W 003°32'2311.1
2020-Sep-18 04:57N 58°58' W 003°18'0 0.0
2020-Sep-18 03:00N 58°58' W 003°18'0 0.0
2020-Sep-18 01:27N 58°58' W 003°18'0 0.0
2020-Sep-18 00:57N 58°58' W 003°18'0 0.0
2020-Sep-17 19:30N 58°58' W 003°18'21 8.2
2020-Sep-17 16:56N 58°38' W 003°31'2114.8
2020-Sep-17 15:30N 58°58' W 003°18'0 0.0
2020-Sep-17 14:27N 58°58' W 003°18'  

Dump ship's entire track history